createdAt,value
2018-08-28T11:16:32.938Z,5312
2018-08-28T11:17:04.993Z,5244
2018-08-28T11:17:37.090Z,5180
2018-08-28T11:18:09.126Z,5884
2018-08-28T11:18:41.176Z,5972
2018-08-28T11:19:13.911Z,5740
2018-08-28T11:19:45.929Z,5936
2018-08-28T11:20:17.949Z,6140
2018-08-28T11:20:49.994Z,4788
2018-08-28T11:21:22.047Z,4564
2018-08-28T11:21:54.100Z,4320
2018-08-28T11:22:26.259Z,4284
2018-08-28T11:22:58.685Z,4292
2018-08-28T11:23:30.563Z,4108
2018-08-28T11:24:02.631Z,3968
2018-08-28T11:24:34.684Z,3832
2018-08-28T11:25:06.755Z,3728
2018-08-28T11:25:38.764Z,3540
2018-08-28T11:26:10.829Z,3404
2018-08-28T11:26:42.996Z,3312
2018-08-28T11:27:15.031Z,3240
2018-08-28T11:27:47.050Z,3176
2018-08-28T11:28:19.058Z,3136
2018-08-28T11:28:51.087Z,3104
2018-08-28T11:29:23.132Z,3068
2018-08-28T11:29:55.176Z,3040
2018-08-28T11:30:27.317Z,3016
2018-08-28T11:30:59.329Z,2996
2018-08-28T11:31:31.423Z,2976
2018-08-28T11:32:03.526Z,2948
2018-08-28T11:32:35.656Z,2916
2018-08-28T11:33:07.853Z,2876
2018-08-28T11:33:39.896Z,2840
2018-08-28T11:34:12.039Z,2796
2018-08-28T11:34:44.162Z,2756
2018-08-28T11:35:16.207Z,2712
2018-08-28T11:35:48.451Z,2688
2018-08-28T11:36:20.549Z,2676
2018-08-28T11:36:52.568Z,2672
2018-08-28T11:37:24.684Z,2676
2018-08-28T11:37:56.823Z,2672
2018-08-28T11:38:28.994Z,2680
2018-08-28T11:39:01.075Z,2692
2018-08-28T11:39:33.116Z,2724
2018-08-28T11:40:05.186Z,2760
2018-08-28T11:40:37.228Z,2792
2018-08-28T11:41:09.260Z,2816
2018-08-28T11:41:41.299Z,2840
2018-08-28T11:42:13.428Z,2880
2018-08-28T11:42:45.462Z,2928
2018-08-28T11:43:17.504Z,2992
2018-08-28T11:43:49.548Z,3060
2018-08-28T11:44:21.541Z,3124
2018-08-28T11:44:53.542Z,3180
2018-08-28T11:45:25.601Z,3236
2018-08-28T11:45:58.176Z,3300
2018-08-28T11:46:30.286Z,3360
2018-08-28T11:47:02.363Z,3428
2018-08-28T11:47:34.327Z,3504
2018-08-28T11:48:06.342Z,3580
2018-08-28T11:48:38.414Z,3644
2018-08-28T11:49:10.434Z,3704
2018-08-28T11:49:42.502Z,3764
2018-08-28T11:50:14.511Z,3824
2018-08-28T11:50:46.513Z,3872
2018-08-28T11:51:18.558Z,3928
2018-08-28T11:51:50.634Z,3976
2018-08-28T11:52:22.719Z,4040
2018-08-28T11:52:54.726Z,4096
2018-08-28T11:53:26.757Z,4160
2018-08-28T11:53:58.813Z,4204
2018-08-28T11:54:30.871Z,4248
2018-08-28T11:55:02.938Z,4304
2018-08-28T11:55:34.975Z,4368
2018-08-28T11:56:06.980Z,4424
2018-08-28T11:56:39.060Z,4480
2018-08-28T11:57:11.112Z,4556
